createdAt,value
2018-06-15T00:00:16.210Z,14.93
2018-06-15T00:02:48.854Z,14.87
2018-06-15T00:05:17.445Z,14.90
2018-06-15T00:07:46.090Z,14.91
2018-06-15T00:10:14.673Z,14.91
2018-06-15T00:12:43.290Z,14.89
2018-06-15T00:15:11.908Z,14.84
2018-06-15T00:17:40.502Z,14.83
2018-06-15T00:20:09.130Z,14.81
2018-06-15T00:22:39.341Z,14.82
2018-06-15T00:25:09.003Z,14.81
2018-06-15T00:27:37.567Z,14.76
2018-06-15T00:30:06.747Z,14.77
2018-06-15T00:32:35.318Z,14.72
2018-06-15T00:35:04.085Z,14.72
2018-06-15T00:37:32.669Z,14.70
2018-06-15T00:40:01.256Z,14.67
2018-06-15T00:42:29.836Z,14.63
2018-06-15T00:44:58.523Z,14.61
2018-06-15T00:47:27.205Z,14.60
2018-06-15T00:49:55.893Z,14.56
2018-06-15T00:52:24.476Z,14.48
2018-06-15T00:54:53.161Z,14.46
2018-06-15T00:57:33.724Z,14.42
2018-06-15T01:00:02.347Z,14.41
2018-06-15T01:02:30.891Z,14.33
2018-06-15T01:05:00.088Z,14.30
2018-06-15T01:07:28.771Z,14.23
2018-06-15T01:09:57.356Z,14.21
2018-06-15T01:12:25.971Z,14.17
2018-06-15T01:14:54.657Z,14.09
2018-06-15T01:17:23.306Z,14.05
2018-06-15T01:19:51.822Z,14.01
2018-06-15T01:22:20.481Z,13.96
2018-06-15T01:24:49.075Z,13.94
2018-06-15T01:27:17.586Z,13.94
2018-06-15T01:29:46.221Z,13.88
2018-06-15T01:32:14.828Z,13.83
2018-06-15T01:34:43.410Z,13.81
2018-06-15T01:37:12.279Z,13.74
2018-06-15T01:39:40.878Z,13.72
2018-06-15T01:42:09.467Z,13.72
2018-06-15T01:44:38.127Z,13.67
2018-06-15T01:47:06.774Z,13.65
2018-06-15T01:49:35.325Z,13.60
2018-06-15T01:52:03.860Z,13.59
2018-06-15T01:54:32.362Z,13.55
2018-06-15T01:57:00.941Z,13.55
2018-06-15T01:59:30.547Z,13.48
2018-06-15T02:01:59.233Z,13.47
2018-06-15T02:04:27.916Z,13.48
2018-06-15T02:06:56.438Z,13.50
2018-06-15T02:09:24.975Z,13.47
2018-06-15T02:11:53.572Z,13.47
2018-06-15T02:14:22.147Z,13.45
2018-06-15T02:16:50.729Z,13.45
2018-06-15T02:19:19.312Z,13.40
2018-06-15T02:21:47.804Z,13.34
2018-06-15T02:24:16.375Z,13.37
2018-06-15T02:26:44.958Z,13.36
2018-06-15T02:29:13.590Z,13.37
2018-06-15T02:31:42.107Z,13.31
2018-06-15T02:34:10.708Z,13.31
2018-06-15T02:36:39.290Z,13.28
2018-06-15T02:39:09.511Z,13.31
2018-06-15T02:41:38.039Z,13.27
2018-06-15T02:44:06.679Z,13.27
2018-06-15T02:46:35.261Z,13.26
2018-06-15T02:49:03.845Z,13.31
2018-06-15T02:51:32.426Z,13.32
2018-06-15T02:54:00.906Z,13.32
2018-06-15T02:56:29.521Z,13.32
2018-06-15T02:58:58.279Z,13.33
2018-06-15T03:01:27.079Z,13.33
2018-06-15T03:03:55.910Z,13.33
2018-06-15T03:06:24.994Z,13.33
2018-06-15T03:08:53.838Z,13.32
2018-06-15T03:11:22.623Z,13.34
2018-06-15T03:13:51.313Z,13.33
2018-06-15T03:16:19.906Z,13.30
2018-06-15T03:18:48.415Z,13.32
2018-06-15T03:21:16.898Z,13.34
2018-06-15T03:23:45.435Z,13.37
2018-06-15T03:26:14.224Z,13.42
2018-06-15T03:28:42.911Z,13.43
2018-06-15T03:31:11.539Z,13.43
2018-06-15T03:33:40.130Z,13.46
2018-06-15T03:36:09.271Z,13.50
2018-06-15T03:38:38.468Z,13.54
2018-06-15T03:41:07.153Z,13.55
2018-06-15T03:43:35.844Z,13.58
2018-06-15T03:46:04.627Z,13.64
2018-06-15T03:48:33.162Z,13.69
2018-06-15T03:51:01.698Z,13.74
2018-06-15T03:53:31.194Z,13.79
2018-06-15T03:55:59.830Z,13.88
2018-06-15T03:58:28.564Z,13.94
2018-06-15T04:00:57.226Z,14.01
2018-06-15T04:03:25.833Z,14.09
2018-06-15T04:05:54.881Z,14.12
2018-06-15T04:08:23.511Z,14.16
2018-06-15T04:10:52.302Z,14.18
2018-06-15T04:13:21.395Z,14.22
2018-06-15T04:15:50.078Z,14.28
2018-06-15T04:18:18.764Z,14.33
2018-06-15T04:20:47.507Z,14.42
2018-06-15T04:23:16.078Z,14.58
2018-06-15T04:25:45.446Z,14.64
2018-06-15T04:28:14.017Z,14.62
2018-06-15T04:30:42.644Z,14.60
2018-06-15T04:33:11.393Z,14.53
2018-06-15T04:35:40.587Z,14.57
2018-06-15T04:38:09.270Z,14.68
2018-06-15T04:40:37.956Z,14.78
2018-06-15T04:43:06.581Z,14.93
2018-06-15T04:45:35.170Z,15.07
2018-06-15T04:48:03.709Z,15.19
2018-06-15T04:50:32.288Z,15.30
2018-06-15T04:53:00.878Z,15.42
2018-06-15T04:55:30.169Z,15.60
2018-06-15T04:57:58.670Z,15.69
2018-06-15T05:00:27.335Z,15.80
2018-06-15T05:02:56.543Z,15.78
2018-06-15T05:05:25.784Z,15.72
2018-06-15T05:07:54.459Z,15.64
2018-06-15T05:10:23.535Z,15.74
2018-06-15T05:12:52.070Z,15.86
2018-06-15T05:15:20.561Z,16.01
2018-06-15T05:17:49.221Z,16.13
2018-06-15T05:20:17.849Z,16.16
2018-06-15T05:22:46.428Z,16.21
2018-06-15T05:25:15.009Z,16.28
2018-06-15T05:27:43.537Z,16.42
2018-06-15T05:30:12.275Z,16.48
2018-06-15T05:32:40.960Z,16.48
2018-06-15T05:35:09.546Z,16.50
2018-06-15T05:37:38.040Z,16.57
2018-06-15T05:40:06.709Z,16.47
2018-06-15T05:42:35.445Z,16.54
2018-06-15T05:45:04.027Z,16.69
2018-06-15T05:47:32.612Z,16.76
2018-06-15T05:50:01.187Z,16.90
2018-06-15T05:52:29.774Z,16.90
2018-06-15T05:54:58.354Z,16.84
2018-06-15T05:57:27.047Z,16.85
2018-06-15T05:59:55.590Z,16.88
2018-06-15T06:02:24.090Z,16.76
2018-06-15T06:04:52.641Z,16.70
2018-06-15T06:07:21.134Z,16.68
2018-06-15T06:09:49.646Z,16.75
2018-06-15T06:12:18.145Z,16.77
2018-06-15T06:14:46.686Z,16.99
2018-06-15T06:17:15.247Z,17.28
2018-06-15T06:19:43.752Z,17.55
2018-06-15T06:22:12.255Z,17.57
2018-06-15T06:24:40.763Z,17.39
2018-06-15T06:27:09.478Z,17.28
2018-06-15T06:29:38.059Z,17.20
2018-06-15T06:32:06.841Z,17.22
2018-06-15T06:34:35.429Z,17.30
2018-06-15T06:37:03.997Z,17.35
2018-06-15T06:39:32.595Z,16.93
2018-06-15T06:42:01.114Z,17.35
2018-06-15T06:44:29.746Z,17.34
2018-06-15T06:46:58.343Z,17.35
2018-06-15T06:49:26.866Z,17.37
2018-06-15T06:51:55.510Z,17.31
2018-06-15T06:54:24.125Z,17.34
2018-06-15T06:56:52.664Z,17.49
2018-06-15T06:59:21.238Z,17.62
2018-06-15T07:01:49.841Z,17.82
2018-06-15T07:04:18.362Z,18.01
2018-06-15T07:06:47.006Z,18.21
2018-06-15T07:09:15.544Z,18.24
2018-06-15T07:11:44.087Z,18.44
2018-06-15T07:14:12.653Z,18.73
2018-06-15T07:16:41.236Z,18.85
2018-06-15T07:19:09.921Z,18.75
2018-06-15T07:21:38.607Z,18.53
2018-06-15T07:24:07.307Z,18.09
2018-06-15T07:26:35.978Z,17.81
2018-06-15T07:29:04.807Z,17.58
2018-06-15T07:31:33.453Z,17.71
2018-06-15T07:34:01.970Z,17.84
2018-06-15T07:36:30.509Z,17.92
2018-06-15T07:38:59.119Z,17.86
2018-06-15T07:41:27.802Z,17.91
2018-06-15T07:43:56.483Z,18.05
2018-06-15T07:46:26.266Z,18.02
2018-06-15T07:48:54.963Z,18.16
2018-06-15T07:51:23.499Z,18.29
2018-06-15T07:53:52.190Z,18.34
2018-06-15T07:56:21.019Z,18.40
2018-06-15T07:58:49.705Z,18.47
2018-06-15T08:01:18.390Z,18.55
2018-06-15T08:03:52.302Z,18.62
2018-06-15T08:06:20.826Z,18.59
2018-06-15T08:08:49.466Z,18.35
2018-06-15T08:11:17.981Z,18.30
2018-06-15T08:13:46.633Z,18.27
2018-06-15T08:16:15.931Z,17.96
2018-06-15T08:18:44.617Z,18.44
2018-06-15T08:21:13.213Z,18.64
2018-06-15T08:23:41.830Z,18.71
2018-06-15T08:26:10.414Z,18.93
2018-06-15T08:28:39.046Z,18.96
2018-06-15T08:31:07.680Z,18.87
2018-06-15T08:33:36.315Z,18.97
2018-06-15T08:36:05.091Z,18.99
2018-06-15T08:38:33.686Z,19.02
2018-06-15T08:41:02.305Z,18.94
2018-06-15T08:43:31.372Z,19.05
2018-06-15T08:45:59.978Z,19.24
2018-06-15T08:48:28.734Z,19.45
2018-06-15T08:50:57.317Z,19.49
2018-06-15T08:53:25.894Z,19.65
2018-06-15T08:55:54.586Z,19.57
2018-06-15T08:58:23.091Z,19.28
2018-06-15T09:00:51.649Z,19.49
2018-06-15T09:03:20.161Z,19.40
2018-06-15T09:05:48.802Z,19.33
2018-06-15T09:08:17.360Z,19.30
2018-06-15T09:10:45.979Z,19.38
2018-06-15T09:13:15.258Z,19.32
2018-06-15T09:15:44.030Z,19.28
2018-06-15T09:18:12.687Z,19.31
2018-06-15T09:20:41.232Z,19.23
2018-06-15T09:23:09.802Z,19.17
2018-06-15T09:25:38.554Z,19.34
2018-06-15T09:28:07.493Z,19.65
2018-06-15T09:30:36.593Z,19.71
2018-06-15T09:33:05.202Z,19.64
2018-06-15T09:35:33.853Z,19.59
2018-06-15T09:38:02.441Z,19.81
2018-06-15T09:40:30.971Z,19.87
2018-06-15T09:42:59.486Z,19.94
2018-06-15T09:45:27.972Z,19.73
2018-06-15T09:47:56.803Z,19.83
2018-06-15T09:50:25.356Z,19.85
2018-06-15T09:52:54.060Z,19.84
2018-06-15T09:55:22.615Z,19.93
2018-06-15T09:58:00.257Z,19.82
2018-06-15T10:00:34.024Z,19.93
2018-06-15T10:03:02.910Z,19.90
2018-06-15T10:05:31.595Z,19.93
2018-06-15T10:08:00.242Z,20.09
2018-06-15T10:10:30.493Z,20.17
2018-06-15T10:12:59.859Z,20.15
2018-06-15T10:15:28.488Z,20.03
2018-06-15T10:17:57.718Z,20.08
2018-06-15T10:20:27.115Z,20.16
2018-06-15T10:22:55.680Z,20.16
2018-06-15T10:25:24.361Z,20.17
2018-06-15T10:27:52.877Z,20.07
2018-06-15T10:30:22.279Z,20.10
2018-06-15T10:32:52.030Z,20.19
2018-06-15T10:35:20.836Z,20.17
2018-06-15T10:37:49.434Z,20.18
2018-06-15T10:40:18.043Z,20.03
2018-06-15T10:42:46.706Z,20.07
2018-06-15T10:45:15.354Z,20.07
2018-06-15T10:47:43.861Z,20.11
2018-06-15T10:50:12.594Z,18.66
2018-06-15T10:52:41.094Z,20.26
2018-06-15T10:55:09.705Z,20.13
2018-06-15T10:57:38.230Z,20.08
2018-06-15T11:00:06.790Z,20.21
2018-06-15T11:02:35.388Z,20.37
2018-06-15T11:05:03.984Z,20.22
2018-06-15T11:07:33.234Z,20.15
2018-06-15T11:10:02.353Z,19.91
2018-06-15T11:12:31.220Z,20.10
2018-06-15T11:14:59.711Z,20.21
2018-06-15T11:17:28.271Z,20.21
2018-06-15T11:19:56.832Z,20.34
2018-06-15T11:22:25.350Z,20.35
2018-06-15T11:24:54.054Z,20.26
2018-06-15T11:27:23.549Z,20.17
2018-06-15T11:29:52.146Z,20.25
2018-06-15T11:32:20.658Z,20.39
2018-06-15T11:34:49.285Z,20.54
2018-06-15T11:37:17.868Z,20.74
2018-06-15T11:39:46.421Z,20.99
2018-06-15T11:42:15.039Z,20.99
2018-06-15T11:44:43.722Z,21.18
2018-06-15T11:47:12.230Z,21.24
2018-06-15T11:49:40.882Z,20.72
2018-06-15T11:52:09.384Z,20.74
2018-06-15T11:54:37.874Z,20.87
2018-06-15T11:57:06.529Z,21.06
2018-06-15T11:59:35.005Z,21.10
2018-06-15T12:02:03.515Z,21.15
2018-06-15T12:04:32.186Z,21.30
2018-06-15T12:07:00.963Z,21.17
2018-06-15T12:09:29.526Z,21.03
2018-06-15T12:11:59.255Z,20.86
2018-06-15T12:14:27.918Z,21.00
2018-06-15T12:16:56.475Z,21.06
2018-06-15T12:19:26.539Z,20.88
2018-06-15T12:21:55.117Z,20.77
2018-06-15T12:24:23.666Z,20.75
2018-06-15T12:26:55.360Z,20.72
2018-06-15T12:29:23.886Z,20.94
2018-06-15T12:31:52.526Z,21.12
2018-06-15T12:34:21.019Z,21.27
2018-06-15T12:36:49.716Z,21.33
2018-06-15T12:39:18.217Z,21.34
2018-06-15T12:41:46.755Z,21.42
2018-06-15T12:44:15.236Z,21.49
2018-06-15T12:46:43.723Z,21.53
2018-06-15T12:49:12.234Z,21.76
2018-06-15T12:51:40.761Z,21.92
2018-06-15T12:54:09.669Z,21.66
2018-06-15T12:56:38.206Z,21.42
2018-06-15T12:59:06.835Z,21.13
2018-06-15T13:01:35.524Z,21.01
2018-06-15T13:04:04.104Z,20.96
2018-06-15T13:06:32.602Z,21.11
2018-06-15T13:09:01.210Z,21.07
2018-06-15T13:11:29.770Z,21.09
2018-06-15T13:13:59.215Z,20.99
2018-06-15T13:16:27.798Z,20.79
2018-06-15T13:18:56.282Z,20.71
2018-06-15T13:21:24.792Z,20.66
2018-06-15T13:23:53.405Z,20.49
2018-06-15T13:26:32.777Z,20.38
2018-06-15T13:29:07.207Z,20.32
2018-06-15T13:31:36.985Z,20.42
2018-06-15T13:34:07.084Z,20.17
2018-06-15T13:36:36.286Z,19.81
2018-06-15T13:39:23.581Z,19.80
2018-06-15T13:41:54.624Z,19.81
2018-06-15T13:44:23.311Z,19.61
2018-06-15T13:46:52.230Z,19.68
2018-06-15T13:49:21.091Z,19.67
2018-06-15T13:51:53.548Z,19.88
2018-06-15T13:54:22.530Z,20.09
2018-06-15T13:56:51.126Z,20.15
2018-06-15T13:59:19.727Z,19.89
2018-06-15T14:01:48.248Z,20.06
2018-06-15T14:04:16.897Z,20.21
2018-06-15T14:06:45.534Z,20.24
2018-06-15T14:09:14.157Z,20.55
2018-06-15T14:11:42.842Z,20.81
2018-06-15T14:14:11.533Z,20.77
2018-06-15T14:16:40.209Z,20.73
2018-06-15T14:19:08.795Z,21.05
2018-06-15T14:21:37.481Z,21.00
2018-06-15T14:24:06.575Z,21.11
2018-06-15T14:26:35.155Z,20.94
2018-06-15T14:29:04.051Z,20.95
2018-06-15T14:31:32.734Z,21.14
2018-06-15T14:34:01.369Z,21.24
2018-06-15T14:36:29.946Z,21.25
2018-06-15T14:38:58.530Z,20.92
2018-06-15T14:41:27.118Z,21.10
2018-06-15T14:43:55.694Z,20.86
2018-06-15T14:46:24.282Z,20.50
2018-06-15T14:48:52.798Z,20.72
2018-06-15T14:51:21.309Z,20.96
2018-06-15T14:53:49.819Z,21.12
2018-06-15T14:56:18.359Z,21.05
2018-06-15T14:58:46.841Z,21.20
2018-06-15T15:01:15.364Z,21.15
2018-06-15T15:03:43.882Z,21.35
2018-06-15T15:06:12.382Z,21.21
2018-06-15T15:08:40.902Z,21.19
2018-06-15T15:11:09.491Z,21.05
2018-06-15T15:13:38.062Z,21.23
2018-06-15T15:16:06.714Z,21.12
2018-06-15T15:18:35.336Z,21.11
2018-06-15T15:21:03.899Z,21.07
2018-06-15T15:23:32.412Z,21.01
2018-06-15T15:26:00.937Z,20.87
2018-06-15T15:28:29.567Z,20.93
2018-06-15T15:30:58.095Z,20.94
2018-06-15T15:33:26.643Z,20.88
2018-06-15T15:35:55.262Z,20.77
2018-06-15T15:38:23.919Z,20.64
2018-06-15T15:40:52.493Z,20.74
2018-06-15T15:43:21.125Z,20.65
2018-06-15T15:45:49.812Z,20.67
2018-06-15T15:48:18.386Z,20.71
2018-06-15T15:50:47.114Z,20.57
2018-06-15T15:53:15.765Z,20.29
2018-06-15T15:55:44.502Z,20.16
2018-06-15T15:58:13.137Z,20.18
2018-06-15T16:00:41.719Z,19.92
2018-06-15T16:03:10.310Z,19.87
2018-06-15T16:05:38.885Z,19.90
2018-06-15T16:08:07.563Z,19.87
2018-06-15T16:10:36.351Z,19.82
2018-06-15T16:13:04.843Z,19.78
2018-06-15T16:15:33.338Z,19.66
2018-06-15T16:18:01.927Z,19.67
2018-06-15T16:20:30.497Z,19.39
2018-06-15T16:22:59.007Z,19.20
2018-06-15T16:25:27.616Z,19.12
2018-06-15T16:27:56.232Z,19.18
2018-06-15T16:30:24.824Z,19.40
2018-06-15T16:32:53.387Z,19.67
2018-06-15T16:35:22.086Z,19.71
2018-06-15T16:37:50.843Z,19.78
2018-06-15T16:40:19.350Z,19.79
2018-06-15T16:42:47.852Z,19.74
2018-06-15T16:45:16.331Z,19.87
2018-06-15T16:47:44.996Z,19.60
2018-06-15T16:50:13.585Z,19.51
2018-06-15T16:52:42.162Z,19.54
2018-06-15T16:55:10.745Z,19.33
2018-06-15T16:57:39.300Z,19.42
2018-06-15T17:00:12.046Z,19.30
2018-06-15T17:02:43.152Z,19.35
2018-06-15T17:05:12.678Z,19.47
2018-06-15T17:07:41.362Z,19.58
2018-06-15T17:10:11.239Z,19.49
2018-06-15T17:12:40.005Z,19.18
2018-06-15T17:15:09.239Z,19.07
2018-06-15T17:17:37.783Z,19.00
2018-06-15T17:20:06.348Z,18.98
2018-06-15T17:22:34.924Z,18.99
2018-06-15T17:25:03.510Z,19.12
2018-06-15T17:27:32.306Z,19.13
2018-06-15T17:30:01.202Z,19.06
2018-06-15T17:32:29.936Z,18.82
2018-06-15T17:34:58.701Z,18.62
2018-06-15T17:37:27.188Z,18.52
2018-06-15T17:39:56.910Z,18.51
2018-06-15T17:42:25.518Z,18.51
2018-06-15T17:44:54.281Z,18.58
2018-06-15T17:47:23.479Z,18.53
2018-06-15T17:49:52.776Z,18.41
2018-06-15T17:52:21.962Z,18.31
2018-06-15T17:54:51.263Z,18.21
2018-06-15T17:57:19.887Z,18.13
2018-06-15T17:59:49.331Z,18.11
2018-06-15T18:02:17.874Z,18.11
2018-06-15T18:04:46.531Z,18.09
2018-06-15T18:07:16.138Z,17.98
2018-06-15T18:09:44.820Z,17.98
2018-06-15T18:12:13.509Z,17.99
2018-06-15T18:14:42.497Z,17.99
2018-06-15T18:17:11.095Z,17.92
2018-06-15T18:19:39.767Z,17.98
2018-06-15T18:22:08.350Z,18.05
2018-06-15T18:24:36.932Z,18.06
2018-06-15T18:27:05.725Z,18.07
2018-06-15T18:29:35.541Z,18.08
2018-06-15T18:32:04.221Z,18.14
2018-06-15T18:34:32.903Z,18.20
2018-06-15T18:37:01.432Z,18.20
2018-06-15T18:39:30.682Z,18.16
2018-06-15T18:41:59.350Z,18.14
2018-06-15T18:44:27.995Z,18.05
2018-06-15T18:46:57.559Z,17.94
2018-06-15T18:49:26.154Z,17.82
2018-06-15T18:51:55.551Z,17.77
2018-06-15T18:54:24.647Z,17.76
2018-06-15T18:56:53.290Z,17.73
2018-06-15T18:59:21.905Z,17.65
2018-06-15T19:01:52.125Z,17.59
2018-06-15T19:04:21.575Z,17.48
2018-06-15T19:06:50.829Z,17.41
2018-06-15T19:09:19.566Z,17.37
2018-06-15T19:11:48.196Z,17.33
2018-06-15T19:14:16.886Z,17.30
2018-06-15T19:16:45.958Z,17.20
2018-06-15T19:19:14.627Z,17.15
2018-06-15T19:21:43.252Z,17.08
2018-06-15T19:24:11.872Z,17.03
2018-06-15T19:26:40.481Z,17.02
2018-06-15T19:29:09.075Z,16.98
2018-06-15T19:31:37.675Z,16.92
2018-06-15T19:34:06.372Z,16.90
2018-06-15T19:36:34.951Z,16.88
2018-06-15T19:39:04.076Z,16.76
2018-06-15T19:41:32.702Z,16.78
2018-06-15T19:44:01.700Z,16.72
2018-06-15T19:46:30.366Z,16.68
2018-06-15T19:49:01.061Z,16.62
2018-06-15T19:51:29.562Z,16.59
2018-06-15T19:53:58.265Z,16.55
2018-06-15T19:56:27.534Z,16.50
2018-06-15T19:58:56.198Z,16.43
2018-06-15T20:01:24.874Z,16.38
2018-06-15T20:03:53.456Z,16.33
2018-06-15T20:06:21.953Z,16.29
2018-06-15T20:08:51.266Z,16.23
2018-06-15T20:11:19.921Z,16.09
2018-06-15T20:13:48.455Z,16.04
2018-06-15T20:16:17.075Z,16.01
2018-06-15T20:18:45.671Z,16.01
2018-06-15T20:21:14.969Z,16.00
2018-06-15T20:23:44.526Z,15.88
2018-06-15T20:26:13.159Z,15.93
2018-06-15T20:28:41.685Z,15.91
2018-06-15T20:31:10.244Z,15.88
2018-06-15T20:33:38.907Z,15.85
2018-06-15T20:36:07.507Z,15.83
2018-06-15T20:38:36.996Z,15.77
2018-06-15T20:41:05.687Z,15.74
2018-06-15T20:43:34.185Z,15.74
2018-06-15T20:46:02.845Z,15.75
2018-06-15T20:48:31.377Z,15.74
2018-06-15T20:51:00.014Z,15.68
2018-06-15T20:53:28.598Z,15.71
2018-06-15T20:55:58.002Z,15.70
2018-06-15T20:58:27.643Z,15.70
2018-06-15T21:00:56.197Z,15.64
2018-06-15T21:03:24.871Z,15.65
2018-06-15T21:05:53.454Z,15.65
2018-06-15T21:08:22.651Z,15.63
2018-06-15T21:10:51.142Z,15.62
2018-06-15T21:13:19.717Z,15.61
2018-06-15T21:15:48.342Z,15.60
2018-06-15T21:18:17.014Z,15.59
2018-06-15T21:20:45.582Z,15.57
2018-06-15T21:23:14.133Z,15.53
2018-06-15T21:25:42.731Z,15.48
2018-06-15T21:28:11.417Z,15.44
2018-06-15T21:30:39.952Z,15.44
2018-06-15T21:33:08.521Z,15.48
2018-06-15T21:35:37.764Z,15.46
2018-06-15T21:38:06.482Z,15.45
2018-06-15T21:40:35.303Z,15.43
2018-06-15T21:43:04.539Z,15.42
2018-06-15T21:45:33.136Z,15.41
2018-06-15T21:48:01.821Z,15.38
2018-06-15T21:50:30.665Z,15.40
2018-06-15T21:52:59.362Z,15.37
2018-06-15T21:55:27.897Z,15.35
2018-06-15T21:57:56.562Z,15.33
2018-06-15T22:00:26.216Z,15.29
2018-06-15T22:02:54.750Z,15.28
2018-06-15T22:05:23.442Z,15.24
2018-06-15T22:07:52.064Z,15.21
2018-06-15T22:10:20.740Z,15.19
2018-06-15T22:12:49.393Z,15.20
2018-06-15T22:15:18.182Z,15.19
2018-06-15T22:17:46.842Z,15.19
2018-06-15T22:20:15.451Z,15.18
2018-06-15T22:22:43.988Z,15.09
2018-06-15T22:25:12.718Z,15.13
2018-06-15T22:27:41.398Z,15.13
2018-06-15T22:30:10.626Z,15.12
2018-06-15T22:32:39.210Z,15.09
2018-06-15T22:35:07.865Z,15.02
2018-06-15T22:37:36.398Z,14.96
2018-06-15T22:40:05.638Z,14.87
2018-06-15T22:42:35.162Z,14.81
2018-06-15T22:45:03.834Z,14.81
2018-06-15T22:47:32.450Z,14.78
2018-06-15T22:50:01.106Z,14.72
2018-06-15T22:52:29.699Z,14.67
2018-06-15T22:54:58.340Z,14.61
2018-06-15T22:57:26.910Z,14.64
2018-06-15T22:59:55.536Z,14.66
2018-06-15T23:02:24.069Z,14.63
2018-06-15T23:04:52.574Z,14.62
2018-06-15T23:07:21.125Z,14.64
2018-06-15T23:09:49.765Z,14.65
2018-06-15T23:12:18.396Z,14.64
2018-06-15T23:14:47.077Z,14.63
2018-06-15T23:17:15.617Z,14.61
2018-06-15T23:19:44.242Z,14.58
2018-06-15T23:22:12.781Z,14.56
2018-06-15T23:24:41.386Z,14.53
2018-06-15T23:27:10.051Z,14.49
2018-06-15T23:29:38.633Z,14.48
2018-06-15T23:32:08.036Z,14.43
2018-06-15T23:34:37.382Z,14.38
2018-06-15T23:37:06.071Z,14.37
2018-06-15T23:39:34.676Z,14.32
2018-06-15T23:42:03.289Z,14.28
2018-06-15T23:44:31.818Z,14.24
2018-06-15T23:47:01.211Z,14.21
2018-06-15T23:49:29.958Z,14.15
2018-06-15T23:51:58.657Z,14.14
2018-06-15T23:54:27.342Z,14.11
2018-06-15T23:56:56.016Z,14.10
2018-06-15T23:59:25.058Z,14.03
